sensor_id;sensor_type;location;lat;lon;timestamp;temperature;humidity
18654;DHT22;9456;47.824;16.228;2023-02-22T00:00:43;4.80;96.70
18654;DHT22;9456;47.824;16.228;2023-02-22T00:03:13;4.80;96.70
18654;DHT22;9456;47.824;16.228;2023-02-22T00:05:41;4.70;96.50
18654;DHT22;9456;47.824;16.228;2023-02-22T00:08:12;4.70;96.60
18654;DHT22;9456;47.824;16.228;2023-02-22T00:10:41;4.60;96.70
18654;DHT22;9456;47.824;16.228;2023-02-22T00:13:11;4.60;96.70
18654;DHT22;9456;47.824;16.228;2023-02-22T00:15:39;4.50;96.60
18654;DHT22;9456;47.824;16.228;2023-02-22T00:18:09;4.50;96.70
18654;DHT22;9456;47.824;16.228;2023-02-22T00:20:38;4.40;96.60
18654;DHT22;9456;47.824;16.228;2023-02-22T00:23:07;4.40;96.80
18654;DHT22;9456;47.824;16.228;2023-02-22T00:25:36;4.30;96.90
18654;DHT22;9456;47.824;16.228;2023-02-22T00:28:05;4.30;97.10
18654;DHT22;9456;47.824;16.228;2023-02-22T00:30:34;4.30;97.40
18654;DHT22;9456;47.824;16.228;2023-02-22T00:33:03;4.20;97.40
18654;DHT22;9456;47.824;16.228;2023-02-22T00:35:32;4.20;97.60
18654;DHT22;9456;47.824;16.228;2023-02-22T00:38:01;4.20;97.60
18654;DHT22;9456;47.824;16.228;2023-02-22T00:40:30;4.20;97.80
18654;DHT22;9456;47.824;16.228;2023-02-22T00:42:59;4.20;97.70
18654;DHT22;9456;47.824;16.228;2023-02-22T00:45:28;4.10;97.60
18654;DHT22;9456;47.824;16.228;2023-02-22T00:47:57;4.10;97.80
18654;DHT22;9456;47.824;16.228;2023-02-22T00:50:27;4.10;97.80
18654;DHT22;9456;47.824;16.228;2023-02-22T00:52:55;4.10;97.80
18654;DHT22;9456;47.824;16.228;2023-02-22T00:55:25;4.00;98.10
18654;DHT22;9456;47.824;16.228;2023-02-22T00:57:53;4.00;97.90
18654;DHT22;9456;47.824;16.228;2023-02-22T01:00:23;4.00;97.80
18654;DHT22;9456;47.824;16.228;2023-02-22T01:02:51;3.90;97.80
18654;DHT22;9456;47.824;16.228;2023-02-22T01:05:21;3.90;98.10
18654;DHT22;9456;47.824;16.228;2023-02-22T01:07:49;3.90;98.20
18654;DHT22;9456;47.824;16.228;2023-02-22T01:10:19;3.90;98.30
18654;DHT22;9456;47.824;16.228;2023-02-22T01:12:47;3.90;98.50
18654;DHT22;9456;47.824;16.228;2023-02-22T01:15:17;3.90;98.40
18654;DHT22;9456;47.824;16.228;2023-02-22T01:17:45;3.90;98.40
18654;DHT22;9456;47.824;16.228;2023-02-22T01:20:14;4.00;98.30
18654;DHT22;9456;47.824;16.228;2023-02-22T01:22:44;4.00;98.30
18654;DHT22;9456;47.824;16.228;2023-02-22T01:25:14;4.00;98.30
18654;DHT22;9456;47.824;16.228;2023-02-22T01:27:43;4.00;98.20
18654;DHT22;9456;47.824;16.228;2023-02-22T01:30:13;4.00;98.10
18654;DHT22;9456;47.824;16.228;2023-02-22T01:32:41;4.00;97.90
18654;DHT22;9456;47.824;16.228;2023-02-22T01:35:11;3.90;97.70
18654;DHT22;9456;47.824;16.228;2023-02-22T01:37:39;3.90;97.70
18654;DHT22;9456;47.824;16.228;2023-02-22T01:40:13;4.00;97.80
18654;DHT22;9456;47.824;16.228;2023-02-22T01:42:38;3.90;97.70
18654;DHT22;9456;47.824;16.228;2023-02-22T01:45:42;4.00;97.70
18654;DHT22;9456;47.824;16.228;2023-02-22T01:48:12;4.00;97.60
18654;DHT22;9456;47.824;16.228;2023-02-22T01:50:42;4.00;98.00
18654;DHT22;9456;47.824;16.228;2023-02-22T01:53:12;4.00;97.50
18654;DHT22;9456;47.824;16.228;2023-02-22T01:55:40;4.00;97.80
18654;DHT22;9456;47.824;16.228;2023-02-22T01:58:08;3.90;97.40
18654;DHT22;9456;47.824;16.228;2023-02-22T02:00:37;3.90;97.40
18654;DHT22;9456;47.824;16.228;2023-02-22T02:03:08;3.90;97.30
18654;DHT22;9456;47.824;16.228;2023-02-22T02:05:36;3.90;97.30
18654;DHT22;9456;47.824;16.228;2023-02-22T02:08:07;3.80;97.40
18654;DHT22;9456;47.824;16.228;2023-02-22T02:10:35;3.80;97.40
18654;DHT22;9456;47.824;16.228;2023-02-22T02:13:03;3.80;97.50
18654;DHT22;9456;47.824;16.228;2023-02-22T02:15:32;3.80;97.60
18654;DHT22;9456;47.824;16.228;2023-02-22T02:18:02;3.70;97.70
18654;DHT22;9456;47.824;16.228;2023-02-22T02:20:31;3.80;97.90
18654;DHT22;9456;47.824;16.228;2023-02-22T02:23:03;3.80;97.80
18654;DHT22;9456;47.824;16.228;2023-02-22T02:26:00;3.70;97.80
18654;DHT22;9456;47.824;16.228;2023-02-22T02:35:00;3.70;98.00
18654;DHT22;9456;47.824;16.228;2023-02-22T02:37:31;3.70;98.10
18654;DHT22;9456;47.824;16.228;2023-02-22T02:40:05;3.70;98.10
18654;DHT22;9456;47.824;16.228;2023-02-22T02:42:32;3.80;98.40
18654;DHT22;9456;47.824;16.228;2023-02-22T02:45:03;3.80;98.30
18654;DHT22;9456;47.824;16.228;2023-02-22T02:47:30;3.90;98.10
18654;DHT22;9456;47.824;16.228;2023-02-22T02:50:01;3.90;97.80
18654;DHT22;9456;47.824;16.228;2023-02-22T02:52:30;3.80;98.00
18654;DHT22;9456;47.824;16.228;2023-02-22T02:54:59;3.80;98.40
18654;DHT22;9456;47.824;16.228;2023-02-22T02:57:28;3.80;98.00
18654;DHT22;9456;47.824;16.228;2023-02-22T02:59:57;3.80;98.00
18654;DHT22;9456;47.824;16.228;2023-02-22T03:02:34;3.80;98.10
18654;DHT22;9456;47.824;16.228;2023-02-22T03:05:26;3.90;98.30
18654;DHT22;9456;47.824;16.228;2023-02-22T03:07:54;3.90;98.70
18654;DHT22;9456;47.824;16.228;2023-02-22T03:10:32;4.00;98.50
18654;DHT22;9456;47.824;16.228;2023-02-22T03:13:03;4.00;98.30
18654;DHT22;9456;47.824;16.228;2023-02-22T03:15:34;4.10;98.20
18654;DHT22;9456;47.824;16.228;2023-02-22T03:18:04;4.10;98.00
18654;DHT22;9456;47.824;16.228;2023-02-22T03:20:34;4.20;97.90
18654;DHT22;9456;47.824;16.228;2023-02-22T03:23:05;4.30;97.80
18654;DHT22;9456;47.824;16.228;2023-02-22T03:25:35;4.40;97.80
18654;DHT22;9456;47.824;16.228;2023-02-22T03:28:03;4.50;97.70
18654;DHT22;9456;47.824;16.228;2023-02-22T03:30:33;4.60;97.50
18654;DHT22;9456;47.824;16.228;2023-02-22T03:33:02;4.70;97.40
18654;DHT22;9456;47.824;16.228;2023-02-22T03:35:32;4.70;97.10
18654;DHT22;9456;47.824;16.228;2023-02-22T03:38:01;4.80;96.80
18654;DHT22;9456;47.824;16.228;2023-02-22T03:40:30;4.90;96.60
18654;DHT22;9456;47.824;16.228;2023-02-22T03:42:59;4.90;96.40
18654;DHT22;9456;47.824;16.228;2023-02-22T03:45:27;4.90;96.50
18654;DHT22;9456;47.824;16.228;2023-02-22T03:48:03;5.00;96.40
18654;DHT22;9456;47.824;16.228;2023-02-22T03:50:27;5.10;96.40
18654;DHT22;9456;47.824;16.228;2023-02-22T03:52:56;5.10;96.20
18654;DHT22;9456;47.824;16.228;2023-02-22T03:55:27;5.20;96.10
18654;DHT22;9456;47.824;16.228;2023-02-22T03:57:57;5.20;96.00
18654;DHT22;9456;47.824;16.228;2023-02-22T04:00:26;5.10;95.90
18654;DHT22;9456;47.824;16.228;2023-02-22T04:02:54;5.10;96.00
18654;DHT22;9456;47.824;16.228;2023-02-22T04:05:23;5.20;96.00
18654;DHT22;9456;47.824;16.228;2023-02-22T04:07:53;5.20;96.00
18654;DHT22;9456;47.824;16.228;2023-02-22T04:10:22;5.30;95.90
18654;DHT22;9456;47.824;16.228;2023-02-22T04:12:51;5.30;95.90
18654;DHT22;9456;47.824;16.228;2023-02-22T04:15:21;5.40;96.10
18654;DHT22;9456;47.824;16.228;2023-02-22T04:17:48;5.40;96.00
18654;DHT22;9456;47.824;16.228;2023-02-22T04:20:24;5.50;96.00
18654;DHT22;9456;47.824;16.228;2023-02-22T04:22:53;5.50;95.80
18654;DHT22;9456;47.824;16.228;2023-02-22T04:25:22;5.50;95.70
18654;DHT22;9456;47.824;16.228;2023-02-22T04:27:51;5.60;95.70
18654;DHT22;9456;47.824;16.228;2023-02-22T04:30:20;5.70;95.80
18654;DHT22;9456;47.824;16.228;2023-02-22T04:32:49;5.70;95.70
18654;DHT22;9456;47.824;16.228;2023-02-22T04:35:18;5.70;95.50
18654;DHT22;9456;47.824;16.228;2023-02-22T04:37:47;5.80;95.50
18654;DHT22;9456;47.824;16.228;2023-02-22T04:40:16;5.80;95.40
18654;DHT22;9456;47.824;16.228;2023-02-22T04:42:45;5.80;95.30
18654;DHT22;9456;47.824;16.228;2023-02-22T04:45:14;5.90;95.40
18654;DHT22;9456;47.824;16.228;2023-02-22T04:47:43;5.90;95.40
18654;DHT22;9456;47.824;16.228;2023-02-22T04:50:12;5.90;95.10
18654;DHT22;9456;47.824;16.228;2023-02-22T04:52:41;6.00;95.50
18654;DHT22;9456;47.824;16.228;2023-02-22T04:55:10;6.00;95.00
18654;DHT22;9456;47.824;16.228;2023-02-22T04:57:47;6.10;95.00
18654;DHT22;9456;47.824;16.228;2023-02-22T05:00:18;6.10;94.90
18654;DHT22;9456;47.824;16.228;2023-02-22T05:02:47;6.10;94.80
18654;DHT22;9456;47.824;16.228;2023-02-22T05:05:16;6.10;94.70
18654;DHT22;9456;47.824;16.228;2023-02-22T05:07:45;6.20;94.80
18654;DHT22;9456;47.824;16.228;2023-02-22T05:12:43;6.20;95.10
18654;DHT22;9456;47.824;16.228;2023-02-22T05:15:15;6.20;94.70
18654;DHT22;9456;47.824;16.228;2023-02-22T05:17:43;6.20;94.70
18654;DHT22;9456;47.824;16.228;2023-02-22T05:20:16;6.20;94.70
18654;DHT22;9456;47.824;16.228;2023-02-22T05:22:45;6.20;94.70
18654;DHT22;9456;47.824;16.228;2023-02-22T05:25:14;6.30;94.70
18654;DHT22;9456;47.824;16.228;2023-02-22T05:27:43;6.30;94.80
18654;DHT22;9456;47.824;16.228;2023-02-22T05:30:13;6.40;94.70
18654;DHT22;9456;47.824;16.228;2023-02-22T05:32:42;6.40;94.30
18654;DHT22;9456;47.824;16.228;2023-02-22T05:35:11;6.40;94.60
18654;DHT22;9456;47.824;16.228;2023-02-22T05:37:40;6.50;94.70
18654;DHT22;9456;47.824;16.228;2023-02-22T05:40:10;6.50;94.60
18654;DHT22;9456;47.824;16.228;2023-02-22T05:42:39;6.50;94.60
18654;DHT22;9456;47.824;16.228;2023-02-22T05:45:10;6.50;94.60
18654;DHT22;9456;47.824;16.228;2023-02-22T05:47:39;6.50;94.60
18654;DHT22;9456;47.824;16.228;2023-02-22T05:50:10;6.60;94.50
18654;DHT22;9456;47.824;16.228;2023-02-22T05:52:39;6.60;94.50
18654;DHT22;9456;47.824;16.228;2023-02-22T05:55:09;6.60;94.50
18654;DHT22;9456;47.824;16.228;2023-02-22T05:57:37;6.60;94.50
18654;DHT22;9456;47.824;16.228;2023-02-22T06:00:18;6.70;94.60
18654;DHT22;9456;47.824;16.228;2023-02-22T06:02:46;6.70;94.60
18654;DHT22;9456;47.824;16.228;2023-02-22T06:05:15;6.70;94.60
18654;DHT22;9456;47.824;16.228;2023-02-22T06:07:44;6.70;94.70
18654;DHT22;9456;47.824;16.228;2023-02-22T06:10:13;6.80;94.70
18654;DHT22;9456;47.824;16.228;2023-02-22T06:12:42;6.80;94.60
18654;DHT22;9456;47.824;16.228;2023-02-22T06:15:12;6.80;94.50
18654;DHT22;9456;47.824;16.228;2023-02-22T06:17:41;6.80;94.50
18654;DHT22;9456;47.824;16.228;2023-02-22T06:20:12;6.90;94.60
18654;DHT22;9456;47.824;16.228;2023-02-22T06:22:40;7.00;94.90
18654;DHT22;9456;47.824;16.228;2023-02-22T06:25:12;7.00;94.20
18654;DHT22;9456;47.824;16.228;2023-02-22T06:27:38;7.00;94.10
18654;DHT22;9456;47.824;16.228;2023-02-22T06:30:09;7.10;93.90
18654;DHT22;9456;47.824;16.228;2023-02-22T06:32:38;7.20;93.70
18654;DHT22;9456;47.824;16.228;2023-02-22T06:35:07;7.20;93.90
18654;DHT22;9456;47.824;16.228;2023-02-22T06:37:38;7.30;93.30
18654;DHT22;9456;47.824;16.228;2023-02-22T06:40:06;7.40;93.20
18654;DHT22;9456;47.824;16.228;2023-02-22T06:42:35;7.50;93.00
18654;DHT22;9456;47.824;16.228;2023-02-22T06:45:05;7.60;92.90
18654;DHT22;9456;47.824;16.228;2023-02-22T06:47:37;7.70;92.70
18654;DHT22;9456;47.824;16.228;2023-02-22T06:50:07;7.90;92.50
18654;DHT22;9456;47.824;16.228;2023-02-22T06:52:40;8.10;91.90
18654;DHT22;9456;47.824;16.228;2023-02-22T06:55:05;8.20;91.20
18654;DHT22;9456;47.824;16.228;2023-02-22T06:57:34;8.30;90.70
18654;DHT22;9456;47.824;16.228;2023-02-22T07:00:04;8.40;90.50
18654;DHT22;9456;47.824;16.228;2023-02-22T07:02:33;8.50;90.30
18654;DHT22;9456;47.824;16.228;2023-02-22T07:05:02;8.70;90.20
18654;DHT22;9456;47.824;16.228;2023-02-22T07:07:31;9.10;90.20
18654;DHT22;9456;47.824;16.228;2023-02-22T07:10:00;10.50;79.00
18654;DHT22;9456;47.824;16.228;2023-02-22T07:12:29;10.80;76.30
18654;DHT22;9456;47.824;16.228;2023-02-22T07:14:58;11.20;75.60
18654;DHT22;9456;47.824;16.228;2023-02-22T07:17:27;11.40;71.30
18654;DHT22;9456;47.824;16.228;2023-02-22T07:19:56;11.40;71.30
18654;DHT22;9456;47.824;16.228;2023-02-22T07:22:25;11.30;70.90
18654;DHT22;9456;47.824;16.228;2023-02-22T07:24:54;11.30;71.00
18654;DHT22;9456;47.824;16.228;2023-02-22T07:27:23;11.20;71.90
18654;DHT22;9456;47.824;16.228;2023-02-22T07:29:52;12.50;67.80
18654;DHT22;9456;47.824;16.228;2023-02-22T07:32:21;14.20;62.20
18654;DHT22;9456;47.824;16.228;2023-02-22T07:34:50;15.50;57.50
18654;DHT22;9456;47.824;16.228;2023-02-22T07:37:19;16.20;54.40
18654;DHT22;9456;47.824;16.228;2023-02-22T07:39:48;15.70;55.00
18654;DHT22;9456;47.824;16.228;2023-02-22T07:42:17;14.60;57.20
18654;DHT22;9456;47.824;16.228;2023-02-22T07:44:46;13.60;59.80
18654;DHT22;9456;47.824;16.228;2023-02-22T07:47:15;12.90;62.60
18654;DHT22;9456;47.824;16.228;2023-02-22T07:49:44;12.30;64.80
18654;DHT22;9456;47.824;16.228;2023-02-22T07:52:14;11.90;67.00
18654;DHT22;9456;47.824;16.228;2023-02-22T07:54:42;11.50;68.60
18654;DHT22;9456;47.824;16.228;2023-02-22T07:57:11;11.20;70.20
18654;DHT22;9456;47.824;16.228;2023-02-22T07:59:40;11.00;71.60
18654;DHT22;9456;47.824;16.228;2023-02-22T08:02:12;11.00;72.30
18654;DHT22;9456;47.824;16.228;2023-02-22T08:07:34;10.90;73.30
18654;DHT22;9456;47.824;16.228;2023-02-22T08:10:03;10.80;73.40
18654;DHT22;9456;47.824;16.228;2023-02-22T08:12:32;10.80;73.90
18654;DHT22;9456;47.824;16.228;2023-02-22T08:15:01;10.90;73.90
18654;DHT22;9456;47.824;16.228;2023-02-22T08:17:30;11.00;73.80
18654;DHT22;9456;47.824;16.228;2023-02-22T08:19:59;11.00;73.50
18654;DHT22;9456;47.824;16.228;2023-02-22T08:22:28;11.10;73.60
18654;DHT22;9456;47.824;16.228;2023-02-22T08:24:57;11.20;72.90
18654;DHT22;9456;47.824;16.228;2023-02-22T08:27:27;11.40;72.80
18654;DHT22;9456;47.824;16.228;2023-02-22T08:29:55;11.60;72.30
18654;DHT22;9456;47.824;16.228;2023-02-22T08:32:24;11.60;71.80
18654;DHT22;9456;47.824;16.228;2023-02-22T08:34:53;11.70;71.30
18654;DHT22;9456;47.824;16.228;2023-02-22T08:37:22;11.90;71.30
18654;DHT22;9456;47.824;16.228;2023-02-22T08:39:52;12.00;70.10
18654;DHT22;9456;47.824;16.228;2023-02-22T08:42:21;12.20;69.70
18654;DHT22;9456;47.824;16.228;2023-02-22T08:44:50;12.60;69.10
18654;DHT22;9456;47.824;16.228;2023-02-22T08:47:19;12.80;67.50
18654;DHT22;9456;47.824;16.228;2023-02-22T08:49:48;12.90;66.80
18654;DHT22;9456;47.824;16.228;2023-02-22T08:52:17;13.10;66.30
18654;DHT22;9456;47.824;16.228;2023-02-22T08:54:46;13.30;66.00
18654;DHT22;9456;47.824;16.228;2023-02-22T08:57:15;13.50;65.20
18654;DHT22;9456;47.824;16.228;2023-02-22T08:59:44;13.60;64.70
18654;DHT22;9456;47.824;16.228;2023-02-22T09:02:16;13.90;63.80
18654;DHT22;9456;47.824;16.228;2023-02-22T09:04:44;14.10;63.20
18654;DHT22;9456;47.824;16.228;2023-02-22T09:09:58;15.10;61.30
18654;DHT22;9456;47.824;16.228;2023-02-22T09:12:27;15.90;58.70
18654;DHT22;9456;47.824;16.228;2023-02-22T09:14:56;16.80;57.40
18654;DHT22;9456;47.824;16.228;2023-02-22T09:17:25;18.40;53.40
18654;DHT22;9456;47.824;16.228;2023-02-22T09:19:54;20.30;49.70
18654;DHT22;9456;47.824;16.228;2023-02-22T09:22:23;21.50;46.90
18654;DHT22;9456;47.824;16.228;2023-02-22T09:24:53;22.50;44.00
18654;DHT22;9456;47.824;16.228;2023-02-22T09:27:22;23.00;42.60
18654;DHT22;9456;47.824;16.228;2023-02-22T09:29:51;23.20;40.00
18654;DHT22;9456;47.824;16.228;2023-02-22T09:32:20;22.70;40.30
18654;DHT22;9456;47.824;16.228;2023-02-22T09:34:49;22.50;40.00
18654;DHT22;9456;47.824;16.228;2023-02-22T09:37:18;22.10;40.40
18654;DHT22;9456;47.824;16.228;2023-02-22T09:39:47;21.80;41.50
18654;DHT22;9456;47.824;16.228;2023-02-22T09:42:19;21.50;41.70
18654;DHT22;9456;47.824;16.228;2023-02-22T09:44:47;21.30;41.10
18654;DHT22;9456;47.824;16.228;2023-02-22T09:47:17;21.80;41.00
18654;DHT22;9456;47.824;16.228;2023-02-22T09:49:50;22.60;40.10
18654;DHT22;9456;47.824;16.228;2023-02-22T09:52:19;22.20;38.50
18654;DHT22;9456;47.824;16.228;2023-02-22T09:54:47;21.90;39.10
18654;DHT22;9456;47.824;16.228;2023-02-22T09:57:17;21.70;39.30
18654;DHT22;9456;47.824;16.228;2023-02-22T09:59:46;21.10;39.00
18654;DHT22;9456;47.824;16.228;2023-02-22T10:02:20;20.60;41.00
18654;DHT22;9456;47.824;16.228;2023-02-22T10:04:50;20.50;41.70
18654;DHT22;9456;47.824;16.228;2023-02-22T10:07:19;19.10;43.70
18654;DHT22;9456;47.824;16.228;2023-02-22T10:09:48;18.80;45.40
18654;DHT22;9456;47.824;16.228;2023-02-22T10:12:22;18.70;44.80
18654;DHT22;9456;47.824;16.228;2023-02-22T10:21:43;18.90;45.20
18654;DHT22;9456;47.824;16.228;2023-02-22T10:24:14;19.00;45.10
18654;DHT22;9456;47.824;16.228;2023-02-22T10:26:43;18.60;46.20
18654;DHT22;9456;47.824;16.228;2023-02-22T10:29:15;18.90;45.70
18654;DHT22;9456;47.824;16.228;2023-02-22T10:31:43;19.30;44.90
18654;DHT22;9456;47.824;16.228;2023-02-22T10:34:13;18.90;45.10
18654;DHT22;9456;47.824;16.228;2023-02-22T10:36:41;18.90;45.50
18654;DHT22;9456;47.824;16.228;2023-02-22T10:39:19;18.30;46.00
18654;DHT22;9456;47.824;16.228;2023-02-22T10:41:43;17.20;47.70
18654;DHT22;9456;47.824;16.228;2023-02-22T10:44:11;17.00;48.70
18654;DHT22;9456;47.824;16.228;2023-02-22T10:46:40;16.30;50.30
18654;DHT22;9456;47.824;16.228;2023-02-22T10:49:09;15.50;52.10
18654;DHT22;9456;47.824;16.228;2023-02-22T10:51:39;15.40;53.40
18654;DHT22;9456;47.824;16.228;2023-02-22T10:54:19;15.40;53.00
18654;DHT22;9456;47.824;16.228;2023-02-22T10:56:48;15.30;53.40
18654;DHT22;9456;47.824;16.228;2023-02-22T10:59:28;15.10;53.90
18654;DHT22;9456;47.824;16.228;2023-02-22T11:01:56;15.10;54.50
18654;DHT22;9456;47.824;16.228;2023-02-22T11:04:25;14.70;55.30
18654;DHT22;9456;47.824;16.228;2023-02-22T11:07:15;14.40;56.10
18654;DHT22;9456;47.824;16.228;2023-02-22T11:09:48;14.30;56.40
18654;DHT22;9456;47.824;16.228;2023-02-22T11:12:20;14.50;56.00
18654;DHT22;9456;47.824;16.228;2023-02-22T11:14:49;14.40;56.60
18654;DHT22;9456;47.824;16.228;2023-02-22T11:17:21;14.50;56.40
18654;DHT22;9456;47.824;16.228;2023-02-22T11:19:49;14.60;56.00
18654;DHT22;9456;47.824;16.228;2023-02-22T11:22:22;14.70;55.70
18654;DHT22;9456;47.824;16.228;2023-02-22T11:24:51;14.70;55.80
18654;DHT22;9456;47.824;16.228;2023-02-22T11:27:28;14.80;55.60
18654;DHT22;9456;47.824;16.228;2023-02-22T11:30:05;14.80;55.60
18654;DHT22;9456;47.824;16.228;2023-02-22T11:32:26;14.90;55.40
18654;DHT22;9456;47.824;16.228;2023-02-22T11:34:55;14.90;55.50
18654;DHT22;9456;47.824;16.228;2023-02-22T11:37:30;14.80;55.70
18654;DHT22;9456;47.824;16.228;2023-02-22T11:40:07;14.70;55.90
18654;DHT22;9456;47.824;16.228;2023-02-22T11:42:37;14.70;55.70
18654;DHT22;9456;47.824;16.228;2023-02-22T11:45:11;14.60;56.20
18654;DHT22;9456;47.824;16.228;2023-02-22T11:47:48;14.50;56.30
18654;DHT22;9456;47.824;16.228;2023-02-22T11:50:21;14.50;56.90
18654;DHT22;9456;47.824;16.228;2023-02-22T11:52:50;14.60;56.30
18654;DHT22;9456;47.824;16.228;2023-02-22T11:55:20;14.70;56.30
18654;DHT22;9456;47.824;16.228;2023-02-22T11:57:57;14.50;56.60
18654;DHT22;9456;47.824;16.228;2023-02-22T12:00:26;14.50;56.70
18654;DHT22;9456;47.824;16.228;2023-02-22T12:03:15;14.40;56.90
18654;DHT22;9456;47.824;16.228;2023-02-22T12:05:57;14.40;57.30
18654;DHT22;9456;47.824;16.228;2023-02-22T12:08:30;14.30;57.10
18654;DHT22;9456;47.824;16.228;2023-02-22T12:11:01;14.30;56.90
18654;DHT22;9456;47.824;16.228;2023-02-22T12:13:39;14.30;56.90
18654;DHT22;9456;47.824;16.228;2023-02-22T12:16:10;14.40;57.00
18654;DHT22;9456;47.824;16.228;2023-02-22T12:18:41;14.30;57.20
18654;DHT22;9456;47.824;16.228;2023-02-22T12:21:10;14.20;57.50
18654;DHT22;9456;47.824;16.228;2023-02-22T12:23:40;14.30;58.00
18654;DHT22;9456;47.824;16.228;2023-02-22T12:26:08;14.30;58.00
18654;DHT22;9456;47.824;16.228;2023-02-22T12:28:37;14.10;58.10
18654;DHT22;9456;47.824;16.228;2023-02-22T12:31:09;14.00;58.80
18654;DHT22;9456;47.824;16.228;2023-02-22T12:33:42;14.00;58.80
18654;DHT22;9456;47.824;16.228;2023-02-22T12:36:10;14.00;58.60
18654;DHT22;9456;47.824;16.228;2023-02-22T12:38:40;14.00;58.40
18654;DHT22;9456;47.824;16.228;2023-02-22T12:41:10;14.10;58.60
18654;DHT22;9456;47.824;16.228;2023-02-22T12:43:38;14.20;58.30
18654;DHT22;9456;47.824;16.228;2023-02-22T12:46:08;14.20;57.40
18654;DHT22;9456;47.824;16.228;2023-02-22T12:48:42;14.20;58.00
18654;DHT22;9456;47.824;16.228;2023-02-22T12:51:16;14.10;57.70
18654;DHT22;9456;47.824;16.228;2023-02-22T12:53:45;14.10;57.70
18654;DHT22;9456;47.824;16.228;2023-02-22T12:56:18;14.10;57.40
18654;DHT22;9456;47.824;16.228;2023-02-22T12:58:48;14.10;58.30
18654;DHT22;9456;47.824;16.228;2023-02-22T13:01:16;14.10;57.90
18654;DHT22;9456;47.824;16.228;2023-02-22T13:03:45;14.10;57.00
18654;DHT22;9456;47.824;16.228;2023-02-22T13:06:33;14.00;57.60
18654;DHT22;9456;47.824;16.228;2023-02-22T13:09:15;13.80;58.10
18654;DHT22;9456;47.824;16.228;2023-02-22T13:11:45;13.80;58.50
18654;DHT22;9456;47.824;16.228;2023-02-22T13:14:20;13.80;58.50
18654;DHT22;9456;47.824;16.228;2023-02-22T13:16:48;13.80;58.80
18654;DHT22;9456;47.824;16.228;2023-02-22T13:19:22;13.80;58.60
18654;DHT22;9456;47.824;16.228;2023-02-22T13:21:50;13.90;58.60
18654;DHT22;9456;47.824;16.228;2023-02-22T13:24:20;13.90;58.10
18654;DHT22;9456;47.824;16.228;2023-02-22T13:26:48;14.00;58.00
18654;DHT22;9456;47.824;16.228;2023-02-22T13:29:17;13.80;58.40
18654;DHT22;9456;47.824;16.228;2023-02-22T13:32:14;13.90;58.50
18654;DHT22;9456;47.824;16.228;2023-02-22T13:34:52;13.80;58.50
18654;DHT22;9456;47.824;16.228;2023-02-22T13:37:36;13.80;58.40
18654;DHT22;9456;47.824;16.228;2023-02-22T13:40:29;13.80;58.60
18654;DHT22;9456;47.824;16.228;2023-02-22T13:43:17;13.80;58.80
18654;DHT22;9456;47.824;16.228;2023-02-22T13:46:00;13.80;58.50
18654;DHT22;9456;47.824;16.228;2023-02-22T13:51:40;13.70;58.80
18654;DHT22;9456;47.824;16.228;2023-02-22T13:54:11;13.80;58.90
18654;DHT22;9456;47.824;16.228;2023-02-22T13:56:39;13.80;58.80
18654;DHT22;9456;47.824;16.228;2023-02-22T13:59:21;13.70;58.70
18654;DHT22;9456;47.824;16.228;2023-02-22T14:01:50;13.60;59.30
18654;DHT22;9456;47.824;16.228;2023-02-22T14:07:46;13.60;59.40
18654;DHT22;9456;47.824;16.228;2023-02-22T14:10:37;13.60;59.40
18654;DHT22;9456;47.824;16.228;2023-02-22T14:13:06;13.60;59.70
18654;DHT22;9456;47.824;16.228;2023-02-22T14:15:34;13.60;59.80
18654;DHT22;9456;47.824;16.228;2023-02-22T14:18:14;13.50;59.50
18654;DHT22;9456;47.824;16.228;2023-02-22T14:20:43;13.60;59.80
18654;DHT22;9456;47.824;16.228;2023-02-22T14:23:27;13.60;59.90
18654;DHT22;9456;47.824;16.228;2023-02-22T14:25:57;13.60;60.20
18654;DHT22;9456;47.824;16.228;2023-02-22T14:28:41;13.40;60.40
18654;DHT22;9456;47.824;16.228;2023-02-22T14:31:10;13.50;60.80
18654;DHT22;9456;47.824;16.228;2023-02-22T14:34:09;13.50;60.40
18654;DHT22;9456;47.824;16.228;2023-02-22T14:36:47;13.40;60.80
18654;DHT22;9456;47.824;16.228;2023-02-22T14:39:19;13.30;60.80
18654;DHT22;9456;47.824;16.228;2023-02-22T14:41:50;13.30;61.00
18654;DHT22;9456;47.824;16.228;2023-02-22T14:44:20;13.20;61.40
18654;DHT22;9456;47.824;16.228;2023-02-22T14:46:48;13.10;61.90
18654;DHT22;9456;47.824;16.228;2023-02-22T14:49:19;13.00;62.30
18654;DHT22;9456;47.824;16.228;2023-02-22T14:51:52;13.00;62.80
18654;DHT22;9456;47.824;16.228;2023-02-22T14:54:26;13.00;62.80
18654;DHT22;9456;47.824;16.228;2023-02-22T14:56:57;13.00;62.80
18654;DHT22;9456;47.824;16.228;2023-02-22T14:59:25;12.90;62.60
18654;DHT22;9456;47.824;16.228;2023-02-22T15:02:05;12.90;63.00
18654;DHT22;9456;47.824;16.228;2023-02-22T15:04:33;12.80;63.20
18654;DHT22;9456;47.824;16.228;2023-02-22T15:07:18;12.70;63.40
18654;DHT22;9456;47.824;16.228;2023-02-22T15:09:40;12.70;63.30
18654;DHT22;9456;47.824;16.228;2023-02-22T15:12:14;12.60;63.60
18654;DHT22;9456;47.824;16.228;2023-02-22T15:14:41;12.60;63.40
18654;DHT22;9456;47.824;16.228;2023-02-22T15:17:11;12.60;63.20
18654;DHT22;9456;47.824;16.228;2023-02-22T15:19:40;12.50;63.20
18654;DHT22;9456;47.824;16.228;2023-02-22T15:22:18;12.40;63.70
18654;DHT22;9456;47.824;16.228;2023-02-22T15:24:47;12.30;63.40
18654;DHT22;9456;47.824;16.228;2023-02-22T15:27:16;12.30;63.70
18654;DHT22;9456;47.824;16.228;2023-02-22T15:29:45;12.30;64.20
18654;DHT22;9456;47.824;16.228;2023-02-22T15:32:27;12.20;64.80
18654;DHT22;9456;47.824;16.228;2023-02-22T15:34:48;12.20;64.40
18654;DHT22;9456;47.824;16.228;2023-02-22T15:37:20;12.10;64.90
18654;DHT22;9456;47.824;16.228;2023-02-22T15:39:49;12.00;65.40
18654;DHT22;9456;47.824;16.228;2023-02-22T15:42:18;12.00;65.70
18654;DHT22;9456;47.824;16.228;2023-02-22T15:44:48;11.90;65.90
18654;DHT22;9456;47.824;16.228;2023-02-22T15:47:18;11.90;66.20
18654;DHT22;9456;47.824;16.228;2023-02-22T15:49:46;11.80;66.30
18654;DHT22;9456;47.824;16.228;2023-02-22T15:52:18;11.80;66.80
18654;DHT22;9456;47.824;16.228;2023-02-22T15:54:48;11.70;67.00
18654;DHT22;9456;47.824;16.228;2023-02-22T15:57:17;11.60;67.30
18654;DHT22;9456;47.824;16.228;2023-02-22T15:59:48;11.60;67.70
18654;DHT22;9456;47.824;16.228;2023-02-22T16:02:28;11.50;67.80
18654;DHT22;9456;47.824;16.228;2023-02-22T16:04:59;11.40;68.10
18654;DHT22;9456;47.824;16.228;2023-02-22T16:07:28;11.40;68.60
18654;DHT22;9456;47.824;16.228;2023-02-22T16:09:57;11.30;68.80
18654;DHT22;9456;47.824;16.228;2023-02-22T16:12:26;11.20;70.00
18654;DHT22;9456;47.824;16.228;2023-02-22T16:14:55;11.10;69.50
18654;DHT22;9456;47.824;16.228;2023-02-22T16:17:31;11.00;69.60
18654;DHT22;9456;47.824;16.228;2023-02-22T16:19:59;11.00;69.80
18654;DHT22;9456;47.824;16.228;2023-02-22T16:22:29;11.00;70.20
18654;DHT22;9456;47.824;16.228;2023-02-22T16:25:14;10.90;70.30
18654;DHT22;9456;47.824;16.228;2023-02-22T16:27:43;10.80;70.60